sensor_id;sensor_type;location;lat;lon;timestamp;pressure;altitude;pressure_sealevel;temperature;humidity
70684;BME280;58263;48.146;11.440;2023-01-10T00:00:45;95209.88;;;3.67;78.15
70684;BME280;58263;48.146;11.440;2023-01-10T00:03:11;95208.44;;;3.64;77.92
70684;BME280;58263;48.146;11.440;2023-01-10T00:05:37;95220.47;;;3.60;78.61
70684;BME280;58263;48.146;11.440;2023-01-10T00:08:04;95220.06;;;3.63;78.41
70684;BME280;58263;48.146;11.440;2023-01-10T00:10:30;95217.41;;;3.63;78.34
70684;BME280;58263;48.146;11.440;2023-01-10T00:12:56;95215.97;;;3.61;78.52
70684;BME280;58263;48.146;11.440;2023-01-10T00:15:40;95220.50;;;3.67;78.08
70684;BME280;58263;48.146;11.440;2023-01-10T00:18:06;95216.44;;;3.71;78.10
70684;BME280;58263;48.146;11.440;2023-01-10T00:20:31;95219.88;;;3.71;77.89
70684;BME280;58263;48.146;11.440;2023-01-10T00:22:57;95230.09;;;3.75;77.66
70684;BME280;58263;48.146;11.440;2023-01-10T00:25:22;95230.28;;;3.73;77.67
70684;BME280;58263;48.146;11.440;2023-01-10T00:27:48;95230.91;;;3.68;77.67
70684;BME280;58263;48.146;11.440;2023-01-10T00:30:18;95229.69;;;3.71;77.77
70684;BME280;58263;48.146;11.440;2023-01-10T00:32:44;95229.88;;;3.69;77.55
70684;BME280;58263;48.146;11.440;2023-01-10T00:35:10;95236.03;;;3.77;77.53
70684;BME280;58263;48.146;11.440;2023-01-10T00:37:36;95244.78;;;3.77;77.58
70684;BME280;58263;48.146;11.440;2023-01-10T00:40:02;95253.97;;;3.81;77.27
70684;BME280;58263;48.146;11.440;2023-01-10T00:42:28;95260.75;;;3.91;76.76
70684;BME280;58263;48.146;11.440;2023-01-10T00:45:12;95270.94;;;3.87;76.68
70684;BME280;58263;48.146;11.440;2023-01-10T00:47:37;95278.69;;;3.88;76.67
70684;BME280;58263;48.146;11.440;2023-01-10T00:50:04;95273.59;;;3.87;76.57
70684;BME280;58263;48.146;11.440;2023-01-10T00:52:33;95282.41;;;3.94;76.22
70684;BME280;58263;48.146;11.440;2023-01-10T00:54:58;95287.06;;;3.92;76.30
70684;BME280;58263;48.146;11.440;2023-01-10T00:57:23;95293.44;;;4.04;75.86
70684;BME280;58263;48.146;11.440;2023-01-10T00:59:48;95299.16;;;4.08;75.79
70684;BME280;58263;48.146;11.440;2023-01-10T01:02:14;95301.84;;;4.15;75.46
70684;BME280;58263;48.146;11.440;2023-01-10T01:04:39;95306.31;;;4.14;75.37
70684;BME280;58263;48.146;11.440;2023-01-10T01:07:05;95307.53;;;4.05;75.30
70684;BME280;58263;48.146;11.440;2023-01-10T01:09:30;95311.59;;;4.07;75.95
70684;BME280;58263;48.146;11.440;2023-01-10T01:11:55;95324.06;;;4.14;75.62
70684;BME280;58263;48.146;11.440;2023-01-10T01:14:22;95323.66;;;4.17;76.14
70684;BME280;58263;48.146;11.440;2023-01-10T01:16:47;95330.56;;;4.04;76.40
70684;BME280;58263;48.146;11.440;2023-01-10T01:19:13;95336.72;;;4.12;76.35
70684;BME280;58263;48.146;11.440;2023-01-10T01:21:38;95342.66;;;4.14;76.48
70684;BME280;58263;48.146;11.440;2023-01-10T01:24:03;95349.84;;;4.20;76.69
70684;BME280;58263;48.146;11.440;2023-01-10T01:26:29;95343.25;;;4.16;76.39
70684;BME280;58263;48.146;11.440;2023-01-10T01:28:54;95348.97;;;4.13;76.35
70684;BME280;58263;48.146;11.440;2023-01-10T01:31:19;95353.88;;;4.16;76.60
70684;BME280;58263;48.146;11.440;2023-01-10T01:33:45;95359.19;;;4.09;76.03
70684;BME280;58263;48.146;11.440;2023-01-10T01:36:11;95362.44;;;4.11;76.34
70684;BME280;58263;48.146;11.440;2023-01-10T01:38:38;95364.50;;;4.09;76.16
70684;BME280;58263;48.146;11.440;2023-01-10T01:41:04;95362.41;;;4.04;76.00
70684;BME280;58263;48.146;11.440;2023-01-10T01:44:15;95376.94;;;4.09;75.54
70684;BME280;58263;48.146;11.440;2023-01-10T01:46:44;95373.88;;;4.12;75.17
70684;BME280;58263;48.146;11.440;2023-01-10T01:49:15;95373.00;;;3.98;75.75
70684;BME280;58263;48.146;11.440;2023-01-10T01:51:44;95386.44;;;3.89;75.65
70684;BME280;58263;48.146;11.440;2023-01-10T01:54:11;95389.53;;;3.93;75.48
70684;BME280;58263;48.146;11.440;2023-01-10T01:56:52;95384.22;;;3.93;75.18
70684;BME280;58263;48.146;11.440;2023-01-10T01:59:32;95395.88;;;3.99;75.18
70684;BME280;58263;48.146;11.440;2023-01-10T02:02:01;95393.03;;;4.00;75.11
70684;BME280;58263;48.146;11.440;2023-01-10T02:04:31;95397.72;;;3.98;75.46
70684;BME280;58263;48.146;11.440;2023-01-10T02:07:00;95402.47;;;4.10;75.16
70684;BME280;58263;48.146;11.440;2023-01-10T02:09:40;95400.44;;;4.18;75.20
70684;BME280;58263;48.146;11.440;2023-01-10T02:12:08;95406.56;;;4.12;75.30
70684;BME280;58263;48.146;11.440;2023-01-10T02:14:35;95414.28;;;4.07;75.68
70684;BME280;58263;48.146;11.440;2023-01-10T02:17:01;95408.56;;;4.10;75.06
70684;BME280;58263;48.146;11.440;2023-01-10T02:27:34;95420.94;;;3.89;76.33
70684;BME280;58263;48.146;11.440;2023-01-10T02:30:36;95416.31;;;3.98;75.80
70684;BME280;58263;48.146;11.440;2023-01-10T02:33:09;95433.63;;;3.94;75.78
70684;BME280;58263;48.146;11.440;2023-01-10T02:35:44;95429.34;;;3.93;75.52
70684;BME280;58263;48.146;11.440;2023-01-10T02:41:05;95434.88;;;3.98;75.67
70684;BME280;58263;48.146;11.440;2023-01-10T02:43:37;95441.59;;;3.94;75.72
70684;BME280;58263;48.146;11.440;2023-01-10T02:46:12;95441.56;;;3.87;75.94
70684;BME280;58263;48.146;11.440;2023-01-10T02:48:39;95439.88;;;3.80;75.84
70684;BME280;58263;48.146;11.440;2023-01-10T02:51:27;95441.91;;;3.78;76.07
70684;BME280;58263;48.146;11.440;2023-01-10T02:53:58;95452.09;;;3.74;75.55
70684;BME280;58263;48.146;11.440;2023-01-10T02:56:30;95452.13;;;3.81;75.80
70684;BME280;58263;48.146;11.440;2023-01-10T03:01:57;95465.25;;;3.61;75.99
70684;BME280;58263;48.146;11.440;2023-01-10T03:04:36;95476.06;;;3.59;76.30
70684;BME280;58263;48.146;11.440;2023-01-10T03:14:48;95475.88;;;3.61;76.68
70684;BME280;58263;48.146;11.440;2023-01-10T03:17:14;95483.00;;;3.60;76.33
70684;BME280;58263;48.146;11.440;2023-01-10T03:19:48;95491.38;;;3.64;76.67
70684;BME280;58263;48.146;11.440;2023-01-10T03:22:16;95480.72;;;3.57;77.02
70684;BME280;58263;48.146;11.440;2023-01-10T03:24:49;95492.22;;;3.64;76.83
70684;BME280;58263;48.146;11.440;2023-01-10T03:27:23;95498.09;;;3.60;76.59
70684;BME280;58263;48.146;11.440;2023-01-10T03:30:11;95502.19;;;3.62;76.66
70684;BME280;58263;48.146;11.440;2023-01-10T03:32:40;95515.69;;;3.67;76.04
70684;BME280;58263;48.146;11.440;2023-01-10T03:35:06;95514.28;;;3.71;76.13
70684;BME280;58263;48.146;11.440;2023-01-10T03:37:39;95520.47;;;3.79;75.61
70684;BME280;58263;48.146;11.440;2023-01-10T03:40:23;95519.66;;;3.78;75.86
70684;BME280;58263;48.146;11.440;2023-01-10T03:46:10;95535.56;;;3.78;75.79
70684;BME280;58263;48.146;11.440;2023-01-10T03:48:40;95548.38;;;3.75;76.22
70684;BME280;58263;48.146;11.440;2023-01-10T03:51:06;95541.03;;;3.70;76.10
70684;BME280;58263;48.146;11.440;2023-01-10T03:53:33;95553.69;;;3.75;75.84
70684;BME280;58263;48.146;11.440;2023-01-10T03:56:01;95561.91;;;3.80;75.73
70684;BME280;58263;48.146;11.440;2023-01-10T03:58:29;95560.25;;;3.79;76.23
70684;BME280;58263;48.146;11.440;2023-01-10T04:00:55;95571.25;;;3.76;76.20
70684;BME280;58263;48.146;11.440;2023-01-10T04:03:20;95582.25;;;3.72;75.96
70684;BME280;58263;48.146;11.440;2023-01-10T04:05:46;95576.50;;;3.69;76.44
70684;BME280;58263;48.146;11.440;2023-01-10T04:08:11;95581.06;;;3.75;75.80
70684;BME280;58263;48.146;11.440;2023-01-10T04:10:36;95580.28;;;3.81;75.94
70684;BME280;58263;48.146;11.440;2023-01-10T04:13:03;95585.19;;;3.84;75.73
70684;BME280;58263;48.146;11.440;2023-01-10T04:15:28;95589.63;;;3.77;76.00
70684;BME280;58263;48.146;11.440;2023-01-10T04:17:54;95596.63;;;3.85;76.01
70684;BME280;58263;48.146;11.440;2023-01-10T04:20:20;95594.66;;;3.94;75.64
70684;BME280;58263;48.146;11.440;2023-01-10T04:22:46;95602.66;;;4.00;75.62
70684;BME280;58263;48.146;11.440;2023-01-10T04:25:14;95614.28;;;3.99;76.01
70684;BME280;58263;48.146;11.440;2023-01-10T04:27:39;95619.19;;;3.96;76.17
70684;BME280;58263;48.146;11.440;2023-01-10T04:30:05;95629.09;;;3.87;76.77
70684;BME280;58263;48.146;11.440;2023-01-10T04:32:31;95631.53;;;3.82;77.20
70684;BME280;58263;48.146;11.440;2023-01-10T04:34:56;95631.75;;;3.87;77.31
70684;BME280;58263;48.146;11.440;2023-01-10T04:37:21;95632.38;;;3.89;77.97
70684;BME280;58263;48.146;11.440;2023-01-10T04:39:47;95638.03;;;3.79;78.29
70684;BME280;58263;48.146;11.440;2023-01-10T04:42:12;95643.19;;;3.87;78.14
70684;BME280;58263;48.146;11.440;2023-01-10T04:44:38;95647.09;;;3.92;78.40
70684;BME280;58263;48.146;11.440;2023-01-10T04:47:03;95642.00;;;3.90;78.09
70684;BME280;58263;48.146;11.440;2023-01-10T04:49:28;95650.97;;;3.89;78.17
70684;BME280;58263;48.146;11.440;2023-01-10T04:51:54;95652.84;;;3.95;78.46
70684;BME280;58263;48.146;11.440;2023-01-10T04:54:22;95658.22;;;3.80;79.06
70684;BME280;58263;48.146;11.440;2023-01-10T04:56:48;95663.91;;;3.77;79.72
70684;BME280;58263;48.146;11.440;2023-01-10T04:59:14;95670.72;;;3.65;79.81
70684;BME280;58263;48.146;11.440;2023-01-10T05:01:39;95676.28;;;3.70;79.52
70684;BME280;58263;48.146;11.440;2023-01-10T05:04:05;95672.75;;;3.63;79.92
70684;BME280;58263;48.146;11.440;2023-01-10T05:06:31;95684.56;;;3.60;80.23
70684;BME280;58263;48.146;11.440;2023-01-10T05:08:57;95687.22;;;3.60;80.57
70684;BME280;58263;48.146;11.440;2023-01-10T05:11:23;95694.53;;;3.58;80.95
70684;BME280;58263;48.146;11.440;2023-01-10T05:13:48;95697.91;;;3.67;81.05
70684;BME280;58263;48.146;11.440;2023-01-10T05:16:14;95696.50;;;3.71;80.52
70684;BME280;58263;48.146;11.440;2023-01-10T05:18:40;95709.94;;;3.69;80.28
70684;BME280;58263;48.146;11.440;2023-01-10T05:21:07;95716.69;;;3.72;80.67
70684;BME280;58263;48.146;11.440;2023-01-10T05:23:33;95720.53;;;3.69;80.61
70684;BME280;58263;48.146;11.440;2023-01-10T05:26:10;95724.22;;;3.68;80.81
70684;BME280;58263;48.146;11.440;2023-01-10T05:28:37;95729.06;;;3.65;80.16
70684;BME280;58263;48.146;11.440;2023-01-10T05:31:05;95727.63;;;3.62;80.63
70684;BME280;58263;48.146;11.440;2023-01-10T05:33:30;95740.38;;;3.52;80.93
70684;BME280;58263;48.146;11.440;2023-01-10T05:35:55;95736.16;;;3.58;80.87
70684;BME280;58263;48.146;11.440;2023-01-10T05:38:21;95741.66;;;3.56;80.97
70684;BME280;58263;48.146;11.440;2023-01-10T05:40:46;95746.28;;;3.54;80.68
70684;BME280;58263;48.146;11.440;2023-01-10T05:43:11;95741.25;;;3.59;80.78
70684;BME280;58263;48.146;11.440;2023-01-10T05:45:37;95762.22;;;3.54;80.57
70684;BME280;58263;48.146;11.440;2023-01-10T05:48:02;95761.28;;;3.62;80.36
70684;BME280;58263;48.146;11.440;2023-01-10T05:50:28;95765.84;;;3.53;80.25
70684;BME280;58263;48.146;11.440;2023-01-10T05:52:53;95772.63;;;3.55;80.23
70684;BME280;58263;48.146;11.440;2023-01-10T05:55:18;95778.84;;;3.63;80.06
70684;BME280;58263;48.146;11.440;2023-01-10T05:57:43;95783.69;;;3.59;79.99
70684;BME280;58263;48.146;11.440;2023-01-10T06:00:09;95790.09;;;3.50;79.94
70684;BME280;58263;48.146;11.440;2023-01-10T06:02:35;95786.81;;;3.63;79.57
70684;BME280;58263;48.146;11.440;2023-01-10T06:05:00;95789.00;;;3.59;80.02
70684;BME280;58263;48.146;11.440;2023-01-10T06:07:25;95804.00;;;3.52;79.79
70684;BME280;58263;48.146;11.440;2023-01-10T06:09:51;95815.91;;;3.56;80.01
70684;BME280;58263;48.146;11.440;2023-01-10T06:12:16;95814.44;;;3.53;79.91
70684;BME280;58263;48.146;11.440;2023-01-10T06:14:45;95821.44;;;3.61;79.39
70684;BME280;58263;48.146;11.440;2023-01-10T06:17:10;95827.88;;;3.67;78.68
70684;BME280;58263;48.146;11.440;2023-01-10T06:19:35;95830.78;;;3.57;78.49
70684;BME280;58263;48.146;11.440;2023-01-10T06:22:02;95833.97;;;3.67;78.91
70684;BME280;58263;48.146;11.440;2023-01-10T06:24:27;95846.34;;;3.60;78.88
70684;BME280;58263;48.146;11.440;2023-01-10T06:26:53;95842.94;;;3.66;78.53
70684;BME280;58263;48.146;11.440;2023-01-10T06:29:18;95847.97;;;3.61;78.60
70684;BME280;58263;48.146;11.440;2023-01-10T06:31:43;95850.00;;;3.59;78.98
70684;BME280;58263;48.146;11.440;2023-01-10T06:34:08;95856.38;;;3.65;78.86
70684;BME280;58263;48.146;11.440;2023-01-10T06:36:34;95858.84;;;3.66;78.88
70684;BME280;58263;48.146;11.440;2023-01-10T06:38:59;95872.13;;;3.66;78.49
70684;BME280;58263;48.146;11.440;2023-01-10T06:41:24;95870.47;;;3.65;78.26
70684;BME280;58263;48.146;11.440;2023-01-10T06:43:50;95879.34;;;3.72;78.15
70684;BME280;58263;48.146;11.440;2023-01-10T06:46:17;95889.69;;;3.67;78.18
70684;BME280;58263;48.146;11.440;2023-01-10T06:48:44;95889.41;;;3.62;77.96
70684;BME280;58263;48.146;11.440;2023-01-10T06:51:14;95894.63;;;3.55;78.25
70684;BME280;58263;48.146;11.440;2023-01-10T06:53:40;95900.38;;;3.59;77.87
70684;BME280;58263;48.146;11.440;2023-01-10T06:56:07;95915.94;;;3.62;78.12
70684;BME280;58263;48.146;11.440;2023-01-10T06:58:34;95916.38;;;3.51;78.11
70684;BME280;58263;48.146;11.440;2023-01-10T07:00:59;95923.25;;;3.60;77.75
70684;BME280;58263;48.146;11.440;2023-01-10T07:03:25;95929.75;;;3.72;77.82
70684;BME280;58263;48.146;11.440;2023-01-10T07:05:50;95935.50;;;3.61;77.84
70684;BME280;58263;48.146;11.440;2023-01-10T07:08:16;95949.13;;;3.73;77.59
70684;BME280;58263;48.146;11.440;2023-01-10T07:10:42;95948.03;;;3.67;77.20
70684;BME280;58263;48.146;11.440;2023-01-10T07:13:08;95960.50;;;3.67;77.52
70684;BME280;58263;48.146;11.440;2023-01-10T07:15:34;95969.56;;;3.72;77.25
70684;BME280;58263;48.146;11.440;2023-01-10T07:18:00;95985.19;;;3.82;76.91
70684;BME280;58263;48.146;11.440;2023-01-10T07:20:25;95989.75;;;3.73;76.83
70684;BME280;58263;48.146;11.440;2023-01-10T07:22:54;95987.03;;;3.67;77.40
70684;BME280;58263;48.146;11.440;2023-01-10T07:25:20;96002.09;;;3.66;77.36
70684;BME280;58263;48.146;11.440;2023-01-10T07:27:46;96002.47;;;3.63;77.86
70684;BME280;58263;48.146;11.440;2023-01-10T07:30:11;96002.47;;;3.63;77.58
70684;BME280;58263;48.146;11.440;2023-01-10T07:32:37;96010.53;;;3.70;77.40
70684;BME280;58263;48.146;11.440;2023-01-10T07:35:02;96016.28;;;3.73;77.33
70684;BME280;58263;48.146;11.440;2023-01-10T07:37:27;96020.25;;;3.78;76.99
70684;BME280;58263;48.146;11.440;2023-01-10T07:39:53;96027.28;;;3.85;76.88
70684;BME280;58263;48.146;11.440;2023-01-10T07:42:18;96041.09;;;3.81;76.78
70684;BME280;58263;48.146;11.440;2023-01-10T07:44:43;96046.25;;;3.97;76.16
70684;BME280;58263;48.146;11.440;2023-01-10T07:47:09;96063.91;;;3.90;76.46
70684;BME280;58263;48.146;11.440;2023-01-10T07:49:34;96057.22;;;3.94;76.48
70684;BME280;58263;48.146;11.440;2023-01-10T07:51:59;96058.63;;;4.05;76.30
70684;BME280;58263;48.146;11.440;2023-01-10T07:54:24;96066.66;;;3.97;76.43
70684;BME280;58263;48.146;11.440;2023-01-10T07:56:50;96071.41;;;4.01;76.43
70684;BME280;58263;48.146;11.440;2023-01-10T07:59:15;96074.78;;;4.10;76.07
70684;BME280;58263;48.146;11.440;2023-01-10T08:01:40;96081.84;;;4.03;76.28
70684;BME280;58263;48.146;11.440;2023-01-10T08:04:06;96090.53;;;4.12;76.27
70684;BME280;58263;48.146;11.440;2023-01-10T08:06:31;96086.78;;;4.06;76.16
70684;BME280;58263;48.146;11.440;2023-01-10T08:08:56;96087.03;;;3.96;76.71
70684;BME280;58263;48.146;11.440;2023-01-10T08:11:22;96100.97;;;3.98;76.70
70684;BME280;58263;48.146;11.440;2023-01-10T08:13:47;96102.16;;;3.96;76.95
70684;BME280;58263;48.146;11.440;2023-01-10T08:16:13;96100.75;;;3.85;77.16
70684;BME280;58263;48.146;11.440;2023-01-10T08:18:40;96111.13;;;3.95;77.00
70684;BME280;58263;48.146;11.440;2023-01-10T08:21:07;96123.50;;;4.02;76.96
70684;BME280;58263;48.146;11.440;2023-01-10T08:23:33;96120.88;;;3.79;77.22
70684;BME280;58263;48.146;11.440;2023-01-10T08:25:59;96118.66;;;3.83;77.38
70684;BME280;58263;48.146;11.440;2023-01-10T08:28:24;96133.00;;;3.73;77.48
70684;BME280;58263;48.146;11.440;2023-01-10T08:30:49;96135.38;;;3.92;76.77
70684;BME280;58263;48.146;11.440;2023-01-10T08:33:20;96139.31;;;3.96;76.87
70684;BME280;58263;48.146;11.440;2023-01-10T08:35:45;96141.63;;;4.14;76.56
70684;BME280;58263;48.146;11.440;2023-01-10T08:38:10;96152.03;;;4.00;76.68
70684;BME280;58263;48.146;11.440;2023-01-10T08:40:36;96153.09;;;3.91;76.84
70684;BME280;58263;48.146;11.440;2023-01-10T08:43:07;96155.50;;;3.86;77.38
70684;BME280;58263;48.146;11.440;2023-01-10T08:45:34;96163.97;;;3.81;77.23
70684;BME280;58263;48.146;11.440;2023-01-10T08:47:59;96166.38;;;3.68;77.78
70684;BME280;58263;48.146;11.440;2023-01-10T08:50:25;96172.78;;;3.73;78.01
70684;BME280;58263;48.146;11.440;2023-01-10T08:52:51;96185.72;;;3.77;78.00
70684;BME280;58263;48.146;11.440;2023-01-10T08:55:17;96181.06;;;3.79;78.47
70684;BME280;58263;48.146;11.440;2023-01-10T08:57:43;96186.72;;;3.76;78.75
70684;BME280;58263;48.146;11.440;2023-01-10T09:00:09;96196.41;;;3.68;78.66
70684;BME280;58263;48.146;11.440;2023-01-10T09:02:36;96194.78;;;3.59;78.99
70684;BME280;58263;48.146;11.440;2023-01-10T09:05:01;96193.06;;;3.66;79.64
70684;BME280;58263;48.146;11.440;2023-01-10T09:07:26;96194.19;;;3.72;78.88
70684;BME280;58263;48.146;11.440;2023-01-10T09:09:52;96203.75;;;3.81;79.16
70684;BME280;58263;48.146;11.440;2023-01-10T09:12:17;96210.53;;;3.84;79.51
70684;BME280;58263;48.146;11.440;2023-01-10T09:15:01;96208.19;;;3.89;79.96
70684;BME280;58263;48.146;11.440;2023-01-10T09:17:27;96208.31;;;3.96;79.84
70684;BME280;58263;48.146;11.440;2023-01-10T09:19:52;96214.91;;;4.00;78.63
70684;BME280;58263;48.146;11.440;2023-01-10T09:22:20;96214.13;;;3.91;79.13
70684;BME280;58263;48.146;11.440;2023-01-10T09:24:45;96215.03;;;4.06;79.76
70684;BME280;58263;48.146;11.440;2023-01-10T09:27:10;96216.66;;;4.07;79.64
70684;BME280;58263;48.146;11.440;2023-01-10T09:29:36;96220.56;;;4.20;79.11
70684;BME280;58263;48.146;11.440;2023-01-10T09:32:01;96220.97;;;4.32;79.13
70684;BME280;58263;48.146;11.440;2023-01-10T09:34:26;96229.72;;;4.55;78.89
70684;BME280;58263;48.146;11.440;2023-01-10T09:36:52;96215.16;;;4.81;78.47
70684;BME280;58263;48.146;11.440;2023-01-10T09:39:18;96228.75;;;5.01;77.30
70684;BME280;58263;48.146;11.440;2023-01-10T09:50:09;96242.50;;;5.35;74.79
70684;BME280;58263;48.146;11.440;2023-01-10T09:52:40;96240.03;;;5.18;74.52
70684;BME280;58263;48.146;11.440;2023-01-10T09:55:24;96241.75;;;5.26;73.87
70684;BME280;58263;48.146;11.440;2023-01-10T09:57:52;96243.13;;;5.22;73.50
70684;BME280;58263;48.146;11.440;2023-01-10T10:00:22;96240.22;;;5.02;72.74
70684;BME280;58263;48.146;11.440;2023-01-10T10:02:50;96254.97;;;4.89;73.05
70684;BME280;58263;48.146;11.440;2023-01-10T10:05:22;96260.66;;;5.01;73.58
70684;BME280;58263;48.146;11.440;2023-01-10T10:07:56;96256.34;;;4.85;73.14
70684;BME280;58263;48.146;11.440;2023-01-10T10:10:25;96255.59;;;4.91;72.37
70684;BME280;58263;48.146;11.440;2023-01-10T10:13:15;96272.75;;;4.89;72.59
70684;BME280;58263;48.146;11.440;2023-01-10T10:18:40;96261.72;;;4.92;73.14
70684;BME280;58263;48.146;11.440;2023-01-10T10:21:15;96257.38;;;4.99;72.70
70684;BME280;58263;48.146;11.440;2023-01-10T10:24:00;96259.72;;;4.94;72.07
70684;BME280;58263;48.146;11.440;2023-01-10T10:26:35;96243.97;;;4.93;72.13
70684;BME280;58263;48.146;11.440;2023-01-10T10:31:58;96249.00;;;5.02;69.93
70684;BME280;58263;48.146;11.440;2023-01-10T10:37:08;96241.50;;;5.36;69.80
70684;BME280;58263;48.146;11.440;2023-01-10T10:39:40;96236.81;;;5.38;68.87
70684;BME280;58263;48.146;11.440;2023-01-10T10:42:12;96234.66;;;5.63;69.17
70684;BME280;58263;48.146;11.440;2023-01-10T10:44:44;96234.09;;;5.68;67.81
70684;BME280;58263;48.146;11.440;2023-01-10T10:47:19;96236.00;;;5.96;66.89
70684;BME280;58263;48.146;11.440;2023-01-10T10:49:53;96224.19;;;5.98;65.08
70684;BME280;58263;48.146;11.440;2023-01-10T10:52:29;96237.59;;;6.26;65.64
70684;BME280;58263;48.146;11.440;2023-01-10T10:54:56;96227.72;;;6.49;65.19
70684;BME280;58263;48.146;11.440;2023-01-10T10:57:24;96221.91;;;6.38;64.99
70684;BME280;58263;48.146;11.440;2023-01-10T10:59:51;96241.31;;;6.32;63.88
70684;BME280;58263;48.146;11.440;2023-01-10T11:04:50;96241.50;;;5.72;62.12
70684;BME280;58263;48.146;11.440;2023-01-10T11:07:17;96251.28;;;5.35;62.74
70684;BME280;58263;48.146;11.440;2023-01-10T11:09:44;96259.63;;;5.62;61.80
70684;BME280;58263;48.146;11.440;2023-01-10T11:12:31;96260.44;;;5.48;61.56
70684;BME280;58263;48.146;11.440;2023-01-10T11:14:57;96270.91;;;5.49;59.86
70684;BME280;58263;48.146;11.440;2023-01-10T11:17:26;96267.44;;;5.49;60.92
70684;BME280;58263;48.146;11.440;2023-01-10T11:20:05;96269.63;;;5.30;60.83
70684;BME280;58263;48.146;11.440;2023-01-10T11:22:37;96270.66;;;5.14;62.15
70684;BME280;58263;48.146;11.440;2023-01-10T11:25:04;96266.25;;;5.21;62.81
70684;BME280;58263;48.146;11.440;2023-01-10T11:27:37;96260.22;;;5.28;63.26
70684;BME280;58263;48.146;11.440;2023-01-10T11:30:08;96266.63;;;5.48;63.81
70684;BME280;58263;48.146;11.440;2023-01-10T11:32:50;96260.28;;;5.34;64.41
70684;BME280;58263;48.146;11.440;2023-01-10T11:35:18;96258.16;;;5.45;64.09
70684;BME280;58263;48.146;11.440;2023-01-10T11:37:59;96252.78;;;5.23;64.38
70684;BME280;58263;48.146;11.440;2023-01-10T11:43:23;96251.28;;;5.35;64.36
70684;BME280;58263;48.146;11.440;2023-01-10T11:45:57;96252.66;;;5.46;64.02
70684;BME280;58263;48.146;11.440;2023-01-10T11:48:29;96248.81;;;5.49;62.43
70684;BME280;58263;48.146;11.440;2023-01-10T11:50:58;96252.75;;;5.53;62.70
70684;BME280;58263;48.146;11.440;2023-01-10T11:53:41;96262.13;;;5.34;63.81
70684;BME280;58263;48.146;11.440;2023-01-10T11:56:10;96271.84;;;5.41;64.24
70684;BME280;58263;48.146;11.440;2023-01-10T11:58:37;96258.34;;;5.43;63.52
70684;BME280;58263;48.146;11.440;2023-01-10T12:01:04;96268.69;;;5.68;63.37
70684;BME280;58263;48.146;11.440;2023-01-10T12:03:32;96268.28;;;5.86;62.87
70684;BME280;58263;48.146;11.440;2023-01-10T12:06:06;96259.03;;;6.40;61.15
70684;BME280;58263;48.146;11.440;2023-01-10T12:08:34;96266.44;;;6.45;61.35
70684;BME280;58263;48.146;11.440;2023-01-10T12:13:26;96256.28;;;6.55;60.89
70684;BME280;58263;48.146;11.440;2023-01-10T12:16:20;96254.34;;;6.70;60.83
70684;BME280;58263;48.146;11.440;2023-01-10T12:18:46;96258.88;;;6.98;59.87
70684;BME280;58263;48.146;11.440;2023-01-10T12:21:14;96241.91;;;7.13;59.30
70684;BME280;58263;48.146;11.440;2023-01-10T12:23:42;96247.66;;;7.09;58.97
70684;BME280;58263;48.146;11.440;2023-01-10T12:26:12;96249.84;;;6.99;58.57
70684;BME280;58263;48.146;11.440;2023-01-10T12:28:41;96245.00;;;7.09;58.20
70684;BME280;58263;48.146;11.440;2023-01-10T12:31:13;96250.47;;;7.01;58.51
70684;BME280;58263;48.146;11.440;2023-01-10T12:33:43;96249.69;;;7.07;58.04
70684;BME280;58263;48.146;11.440;2023-01-10T12:36:23;96260.34;;;7.07;58.23
70684;BME280;58263;48.146;11.440;2023-01-10T12:39:45;96263.75;;;6.66;57.35
70684;BME280;58263;48.146;11.440;2023-01-10T12:42:03;96261.03;;;6.88;56.55
70684;BME280;58263;48.146;11.440;2023-01-10T12:45:04;96270.69;;;6.60;56.27
70684;BME280;58263;48.146;11.440;2023-01-10T12:47:54;96261.44;;;6.85;56.65
70684;BME280;58263;48.146;11.440;2023-01-10T12:50:25;96276.19;;;6.81;57.02
70684;BME280;58263;48.146;11.440;2023-01-10T12:52:59;96273.59;;;6.66;56.44
70684;BME280;58263;48.146;11.440;2023-01-10T12:55:32;96266.31;;;6.53;57.87
70684;BME280;58263;48.146;11.440;2023-01-10T12:58:03;96268.22;;;6.59;57.98
70684;BME280;58263;48.146;11.440;2023-01-10T13:00:33;96269.66;;;6.62;57.31
70684;BME280;58263;48.146;11.440;2023-01-10T13:03:05;96278.41;;;6.77;57.20
70684;BME280;58263;48.146;11.440;2023-01-10T13:05:34;96276.19;;;6.81;56.84
70684;BME280;58263;48.146;11.440;2023-01-10T13:08:04;96277.25;;;6.86;55.57
70684;BME280;58263;48.146;11.440;2023-01-10T13:10:32;96270.75;;;6.67;55.59
70684;BME280;58263;48.146;11.440;2023-01-10T13:13:27;96270.69;;;6.89;55.56
70684;BME280;58263;48.146;11.440;2023-01-10T13:16:13;96264.72;;;6.87;55.40
70684;BME280;58263;48.146;11.440;2023-01-10T13:21:39;96265.41;;;6.96;56.03
70684;BME280;58263;48.146;11.440;2023-01-10T13:26:55;96265.34;;;7.17;55.81
70684;BME280;58263;48.146;11.440;2023-01-10T13:29:39;96267.78;;;6.84;55.92
70684;BME280;58263;48.146;11.440;2023-01-10T13:32:38;96267.88;;;6.97;55.83
70684;BME280;58263;48.146;11.440;2023-01-10T13:35:15;96266.88;;;6.98;55.80
70684;BME280;58263;48.146;11.440;2023-01-10T13:37:42;96275.72;;;6.77;56.35
70684;BME280;58263;48.146;11.440;2023-01-10T13:40:20;96269.72;;;6.68;55.76
70684;BME280;58263;48.146;11.440;2023-01-10T13:48:41;96280.00;;;6.50;57.35
70684;BME280;58263;48.146;11.440;2023-01-10T13:51:28;96276.03;;;6.39;57.85
70684;BME280;58263;48.146;11.440;2023-01-10T13:54:23;96278.94;;;6.44;57.74
70684;BME280;58263;48.146;11.440;2023-01-10T13:56:49;96275.28;;;6.23;57.92
70684;BME280;58263;48.146;11.440;2023-01-10T14:02:16;96273.16;;;6.19;57.27
70684;BME280;58263;48.146;11.440;2023-01-10T14:04:56;96281.09;;;6.34;57.95
70684;BME280;58263;48.146;11.440;2023-01-10T14:10:08;96280.91;;;6.14;57.65
70684;BME280;58263;48.146;11.440;2023-01-10T14:12:55;96280.28;;;5.97;57.81
70684;BME280;58263;48.146;11.440;2023-01-10T14:18:14;96283.03;;;6.03;57.23
70684;BME280;58263;48.146;11.440;2023-01-10T14:20:41;96281.28;;;6.11;57.63